Time;durP1;ratioP1;P1;durP2;ratioP2;P2;SDS_P1;SDS_P2;PMS_P1;PMS_P2;Temp;Humidity;BMP_temperature;BMP_pressure;BME280_temperature;BME280_humidity;BME280_pressure;Samples;Min_cycle;Max_cycle;Signal;HPM_P1;HPM_P2
2023/07/12 00:01:19;;;;;;;7.60;6.38;;;;;;;;;;5018447;28;20029;-70
2023/07/12 00:03:45;;;;;;;7.35;6.18;;;;;;;;;;5024472;28;20038;-69
2023/07/12 00:06:20;;;;;;;6.32;5.72;;;;;;;;;;5025568;28;20033;-70
2023/07/12 00:08:46;;;;;;;6.72;5.65;;;;;;;;;;5021346;28;20113;-69
2023/07/12 00:11:20;;;;;;;11.10;6.80;;;;;;;;;;5023273;28;20092;-70
2023/07/12 00:13:45;;;;;;;7.85;6.47;;;;;;;;;;5022713;28;20029;-69
2023/07/12 00:16:33;;;;;;;7.88;6.60;;;;;;;;;;5024102;28;20041;-72
2023/07/12 00:18:58;;;;;;;6.70;5.70;;;;;;;;;;5001100;28;20029;-69
2023/07/12 00:21:26;;;;;;;6.07;5.13;;;;;;;;;;5026179;28;20045;-69
2023/07/12 00:23:53;;;;;;;8.52;6.25;;;;;;;;;;5019110;28;20022;-70
2023/07/12 00:26:24;;;;;;;8.43;5.38;;;;;;;;;;5023724;28;20032;-70
2023/07/12 00:28:49;;;;;;;9.38;5.70;;;;;;;;;;5026468;28;20108;-70
2023/07/12 00:31:15;;;;;;;7.85;5.40;;;;;;;;;;5023644;28;20444;-71
2023/07/12 00:33:40;;;;;;;9.25;5.28;;;;;;;;;;5024786;28;20889;-71
2023/07/12 00:36:12;;;;;;;7.32;5.18;;;;;;;;;;5019209;28;20033;-70
2023/07/12 00:38:37;;;;;;;8.13;5.63;;;;;;;;;;5027806;28;20075;-70
2023/07/12 00:41:03;;;;;;;8.52;5.60;;;;;;;;;;5027152;28;20026;-71
2023/07/12 00:43:37;;;;;;;4.78;3.90;;;;;;;;;;5026850;28;20895;-71
2023/07/12 00:46:28;;;;;;;5.75;4.70;;;;;;;;;;5023420;28;20168;-70
2023/07/12 00:48:53;;;;;;;7.90;5.53;;;;;;;;;;5016118;28;20026;-70
2023/07/12 00:51:27;;;;;;;6.78;5.32;;;;;;;;;;5026820;28;20043;-70
2023/07/12 00:53:56;;;;;;;8.00;4.88;;;;;;;;;;5025989;28;20569;-70
2023/07/12 00:56:22;;;;;;;6.10;5.47;;;;;;;;;;5023129;28;20021;-71
2023/07/12 00:59:03;;;;;;;6.55;4.95;;;;;;;;;;5024971;28;20036;-72
2023/07/12 01:01:32;;;;;;;5.55;4.95;;;;;;;;;;5025433;28;20029;-70
2023/07/12 01:03:58;;;;;;;10.93;4.68;;;;;;;;;;5023591;28;20033;-71
2023/07/12 01:06:24;;;;;;;6.15;4.55;;;;;;;;;;5024799;28;20028;-70
2023/07/12 01:08:50;;;;;;;6.25;4.72;;;;;;;;;;5015302;28;20044;-70
2023/07/12 01:11:17;;;;;;;6.47;4.60;;;;;;;;;;5021995;28;20056;-71
2023/07/12 01:13:44;;;;;;;6.75;4.20;;;;;;;;;;5026193;28;20048;-70
2023/07/12 01:16:17;;;;;;;5.65;3.83;;;;;;;;;;5025491;28;20048;-71
2023/07/12 01:18:42;;;;;;;6.63;4.20;;;;;;;;;;5019111;28;20025;-71
2023/07/12 01:21:15;;;;;;;5.82;4.00;;;;;;;;;;5022557;28;20040;-72
2023/07/12 01:23:42;;;;;;;4.90;3.88;;;;;;;;;;5026767;28;20721;-70
2023/07/12 01:26:16;;;;;;;5.53;3.95;;;;;;;;;;5026387;28;20021;-71
2023/07/12 01:28:42;;;;;;;5.30;4.07;;;;;;;;;;5024563;28;20026;-70
2023/07/12 01:31:07;;;;;;;6.07;4.28;;;;;;;;;;5019001;28;20080;-72
2023/07/12 01:33:33;;;;;;;6.03;3.80;;;;;;;;;;5021453;28;20041;-71
2023/07/12 01:35:58;;;;;;;4.47;3.63;;;;;;;;;;5026025;28;20104;-70
2023/07/12 01:38:23;;;;;;;7.47;4.03;;;;;;;;;;5024835;28;20031;-71
2023/07/12 01:40:49;;;;;;;8.05;3.55;;;;;;;;;;5022294;28;20426;-71
2023/07/12 01:43:14;;;;;;;6.40;3.67;;;;;;;;;;5003750;28;20065;-70
2023/07/12 01:45:39;;;;;;;5.32;3.50;;;;;;;;;;5025376;28;20033;-71
2023/07/12 01:48:05;;;;;;;5.10;3.00;;;;;;;;;;5007753;28;20022;-70
2023/07/12 01:50:31;;;;;;;6.47;2.40;;;;;;;;;;5022254;28;20026;-71
2023/07/12 01:52:56;;;;;;;3.72;2.42;;;;;;;;;;5001334;28;20509;-70
2023/07/12 01:55:22;;;;;;;4.25;2.80;;;;;;;;;;5026272;28;20021;-70
2023/07/12 01:57:47;;;;;;;4.20;2.38;;;;;;;;;;5025431;28;20024;-71
2023/07/12 02:00:13;;;;;;;4.28;2.60;;;;;;;;;;5025295;28;20028;-70
2023/07/12 02:02:39;;;;;;;4.40;2.42;;;;;;;;;;5019826;28;20104;-70
2023/07/12 02:05:06;;;;;;;3.53;2.35;;;;;;;;;;5021539;28;20467;-70
2023/07/12 02:07:32;;;;;;;4.97;2.97;;;;;;;;;;5014578;28;20667;-71
2023/07/12 02:10:11;;;;;;;4.40;2.58;;;;;;;;;;5023672;28;20029;-70
2023/07/12 02:12:37;;;;;;;5.63;2.92;;;;;;;;;;5026430;28;20026;-71
2023/07/12 02:15:02;;;;;;;4.43;2.60;;;;;;;;;;5017973;28;20033;-71
2023/07/12 02:17:27;;;;;;;4.78;2.40;;;;;;;;;;5017866;28;20182;-70
2023/07/12 02:19:53;;;;;;;3.35;2.60;;;;;;;;;;5026542;28;20117;-71
2023/07/12 02:22:18;;;;;;;3.92;2.25;;;;;;;;;;5025495;28;20033;-71
2023/07/12 02:24:44;;;;;;;4.25;2.40;;;;;;;;;;5021135;28;20083;-70
2023/07/12 02:27:09;;;;;;;6.18;2.40;;;;;;;;;;5024510;28;20040;-70
2023/07/12 02:29:34;;;;;;;3.72;2.40;;;;;;;;;;5026340;28;20014;-70
2023/07/12 02:32:00;;;;;;;2.90;2.10;;;;;;;;;;5025480;28;20227;-71
2023/07/12 02:34:25;;;;;;;4.82;2.38;;;;;;;;;;5024000;28;20540;-70
2023/07/12 02:36:50;;;;;;;4.68;2.13;;;;;;;;;;4998295;28;20037;-72
2023/07/12 02:39:16;;;;;;;3.45;2.28;;;;;;;;;;5026567;28;20583;-70
2023/07/12 02:41:41;;;;;;;4.60;2.50;;;;;;;;;;5024770;28;20017;-70
2023/07/12 02:44:06;;;;;;;6.68;2.40;;;;;;;;;;5023066;28;20083;-72
2023/07/12 02:46:32;;;;;;;3.60;2.17;;;;;;;;;;5022395;28;20026;-70
2023/07/12 02:48:57;;;;;;;3.47;2.20;;;;;;;;;;5025126;28;20115;-70
2023/07/12 02:51:22;;;;;;;2.47;1.80;;;;;;;;;;5029452;28;20853;-70
2023/07/12 02:53:48;;;;;;;3.45;2.10;;;;;;;;;;5030383;28;20045;-71
2023/07/12 02:56:13;;;;;;;4.15;2.40;;;;;;;;;;5028044;28;20485;-70
2023/07/12 02:58:39;;;;;;;3.47;2.15;;;;;;;;;;5021648;28;20034;-72
2023/07/12 03:01:05;;;;;;;5.20;2.42;;;;;;;;;;5026430;28;20131;-70
2023/07/12 03:03:30;;;;;;;4.22;2.30;;;;;;;;;;5029748;28;20029;-73
2023/07/12 03:06:02;;;;;;;3.20;1.90;;;;;;;;;;5011701;28;20056;-70
2023/07/12 03:08:27;;;;;;;2.67;2.08;;;;;;;;;;5024044;28;20025;-71
2023/07/12 03:10:58;;;;;;;3.90;2.20;;;;;;;;;;5027215;28;20490;-70
2023/07/12 03:13:23;;;;;;;3.15;2.08;;;;;;;;;;5025315;28;20134;-71
2023/07/12 03:15:49;;;;;;;2.88;1.92;;;;;;;;;;5019811;28;20112;-70
2023/07/12 03:18:14;;;;;;;3.75;2.17;;;;;;;;;;5023261;28;20071;-70
2023/07/12 03:20:39;;;;;;;2.97;1.90;;;;;;;;;;5022274;28;20034;-69
2023/07/12 03:23:05;;;;;;;3.85;2.45;;;;;;;;;;5023608;28;20034;-70
2023/07/12 03:25:30;;;;;;;3.83;2.40;;;;;;;;;;5021260;28;20033;-71
2023/07/12 03:27:56;;;;;;;3.78;2.20;;;;;;;;;;5024001;28;20045;-69
2023/07/12 03:30:21;;;;;;;3.75;2.00;;;;;;;;;;5019372;28;20018;-70
2023/07/12 03:32:47;;;;;;;5.28;2.67;;;;;;;;;;5022232;28;20041;-70
2023/07/12 03:35:12;;;;;;;3.63;1.98;;;;;;;;;;5029287;28;20029;-69
2023/07/12 03:37:38;;;;;;;3.65;2.20;;;;;;;;;;5028365;28;20049;-70
2023/07/12 03:40:04;;;;;;;4.40;2.20;;;;;;;;;;5028256;28;20041;-70
2023/07/12 03:42:29;;;;;;;3.40;2.33;;;;;;;;;;5019627;28;20018;-70
2023/07/12 03:44:54;;;;;;;3.13;1.92;;;;;;;;;;5023934;28;20026;-70
2023/07/12 03:47:20;;;;;;;3.90;2.25;;;;;;;;;;5026896;28;20497;-71
2023/07/12 03:49:45;;;;;;;4.78;2.30;;;;;;;;;;5028230;28;20025;-70
2023/07/12 03:52:11;;;;;;;3.63;1.92;;;;;;;;;;5024679;28;20025;-68
2023/07/12 03:54:36;;;;;;;4.10;1.85;;;;;;;;;;5026840;28;20175;-70
2023/07/12 03:57:02;;;;;;;2.53;1.80;;;;;;;;;;5027332;28;20021;-70
2023/07/12 03:59:27;;;;;;;4.30;1.98;;;;;;;;;;5011144;28;20025;-70
2023/07/12 04:01:53;;;;;;;3.33;2.17;;;;;;;;;;5025811;28;20029;-71
2023/07/12 04:04:18;;;;;;;3.03;2.08;;;;;;;;;;5017612;28;20156;-70
2023/07/12 04:06:43;;;;;;;3.03;2.10;;;;;;;;;;5027396;28;20045;-70
2023/07/12 04:09:09;;;;;;;3.88;2.17;;;;;;;;;;5028033;28;20048;-70
2023/07/12 04:11:37;;;;;;;4.32;2.15;;;;;;;;;;5024763;28;20160;-70
2023/07/12 04:14:02;;;;;;;3.45;1.92;;;;;;;;;;5024856;28;20091;-70
2023/07/12 04:16:29;;;;;;;3.38;2.10;;;;;;;;;;5005365;28;20116;-71
2023/07/12 04:18:55;;;;;;;2.45;1.52;;;;;;;;;;5021011;28;20614;-71
2023/07/12 04:21:20;;;;;;;3.42;2.90;;;;;;;;;;5007014;28;20033;-70
2023/07/12 04:23:50;;;;;;;4.78;2.70;;;;;;;;;;5024774;28;20029;-70
2023/07/12 04:26:17;;;;;;;3.38;2.22;;;;;;;;;;5022540;28;20025;-68
2023/07/12 04:28:48;;;;;;;3.25;2.10;;;;;;;;;;5028341;28;20021;-71
2023/07/12 04:31:15;;;;;;;4.30;2.35;;;;;;;;;;5024854;28;20029;-68
2023/07/12 04:33:41;;;;;;;6.55;2.38;;;;;;;;;;5028226;28;20033;-69
2023/07/12 04:36:11;;;;;;;4.40;2.40;;;;;;;;;;5023939;28;20047;-70
2023/07/12 04:38:36;;;;;;;3.22;2.20;;;;;;;;;;5022740;28;20074;-70
2023/07/12 04:41:03;;;;;;;4.53;2.33;;;;;;;;;;5027790;28;20490;-70
2023/07/12 04:43:29;;;;;;;3.33;2.30;;;;;;;;;;5027402;28;20033;-70
2023/07/12 04:45:55;;;;;;;3.40;2.30;;;;;;;;;;5015781;28;20075;-73
2023/07/12 04:48:21;;;;;;;3.22;1.95;;;;;;;;;;5023621;28;20034;-68
2023/07/12 04:50:51;;;;;;;4.22;2.58;;;;;;;;;;5026583;28;20082;-70
2023/07/12 04:53:16;;;;;;;5.68;2.63;;;;;;;;;;5023543;28;20021;-70
2023/07/12 04:55:41;;;;;;;5.00;2.65;;;;;;;;;;5021757;28;20028;-70
2023/07/12 04:58:07;;;;;;;4.90;2.03;;;;;;;;;;5019999;28;20104;-70
2023/07/12 05:00:33;;;;;;;3.28;2.55;;;;;;;;;;5023728;28;20035;-70
2023/07/12 05:02:59;;;;;;;4.22;3.35;;;;;;;;;;5022880;28;20033;-71
2023/07/12 05:05:24;;;;;;;5.43;3.40;;;;;;;;;;5024004;28;20025;-70
2023/07/12 05:07:50;;;;;;;4.03;3.03;;;;;;;;;;5024497;28;20528;-67
2023/07/12 05:10:16;;;;;;;3.65;3.00;;;;;;;;;;5019377;28;20032;-69
2023/07/12 05:12:42;;;;;;;4.22;2.17;;;;;;;;;;5007316;28;20053;-68
2023/07/12 05:15:08;;;;;;;5.50;4.05;;;;;;;;;;5025330;28;20032;-71
2023/07/12 05:17:35;;;;;;;7.80;3.75;;;;;;;;;;5023895;28;20052;-68
2023/07/12 05:20:02;;;;;;;5.15;3.63;;;;;;;;;;5021705;28;20020;-69
2023/07/12 05:22:28;;;;;;;4.15;3.25;;;;;;;;;;5020743;28;20028;-71
2023/07/12 05:24:53;;;;;;;5.57;3.28;;;;;;;;;;5020974;28;20025;-70
2023/07/12 05:27:19;;;;;;;2.53;2.13;;;;;;;;;;5026037;28;20122;-71
2023/07/12 05:29:44;;;;;;;5.47;3.97;;;;;;;;;;5023741;28;20029;-70
2023/07/12 05:32:10;;;;;;;6.60;3.95;;;;;;;;;;5022198;28;20021;-70
2023/07/12 05:34:37;;;;;;;10.38;4.07;;;;;;;;;;5022392;28;20029;-70
2023/07/12 05:37:03;;;;;;;9.00;3.97;;;;;;;;;;5016468;28;20500;-70
2023/07/12 05:39:28;;;;;;;6.55;3.90;;;;;;;;;;5019509;28;20025;-69
2023/07/12 05:41:54;;;;;;;5.68;4.13;;;;;;;;;;5005320;28;20032;-69
2023/07/12 05:44:19;;;;;;;6.38;4.30;;;;;;;;;;5016178;28;20025;-69
2023/07/12 05:46:45;;;;;;;4.65;3.97;;;;;;;;;;5024605;28;20021;-69
2023/07/12 05:49:10;;;;;;;5.90;3.90;;;;;;;;;;5026118;28;20551;-69
2023/07/12 05:51:35;;;;;;;6.72;4.15;;;;;;;;;;5026097;28;20477;-69
2023/07/12 05:54:01;;;;;;;6.20;4.93;;;;;;;;;;5018575;28;20036;-70
2023/07/12 05:56:26;;;;;;;5.88;4.75;;;;;;;;;;5025744;28;20092;-69
2023/07/12 05:58:51;;;;;;;6.35;3.83;;;;;;;;;;5024589;28;20048;-69
2023/07/12 06:01:17;;;;;;;5.05;2.95;;;;;;;;;;5015220;28;20022;-70
2023/07/12 06:03:43;;;;;;;4.20;2.58;;;;;;;;;;5022169;28;20021;-69
2023/07/12 06:06:09;;;;;;;5.05;2.97;;;;;;;;;;5022357;28;20075;-69
2023/07/12 06:08:35;;;;;;;9.27;3.03;;;;;;;;;;5024760;28;20132;-68
2023/07/12 06:11:00;;;;;;;4.93;3.22;;;;;;;;;;4999881;28;20136;-66
2023/07/12 06:13:26;;;;;;;6.25;3.88;;;;;;;;;;5021769;28;20037;-67
2023/07/12 06:15:51;;;;;;;6.00;3.63;;;;;;;;;;5022356;28;20129;-65
2023/07/12 06:18:17;;;;;;;7.72;3.60;;;;;;;;;;5023852;28;20025;-70
2023/07/12 06:20:43;;;;;;;5.30;2.67;;;;;;;;;;5025503;28;20018;-70
2023/07/12 06:23:08;;;;;;;5.82;2.65;;;;;;;;;;5026032;28;20119;-70
2023/07/12 06:25:34;;;;;;;5.05;2.15;;;;;;;;;;5022548;28;20022;-71
2023/07/12 06:27:59;;;;;;;5.35;2.55;;;;;;;;;;5019622;28;21038;-71
2023/07/12 06:30:24;;;;;;;4.10;2.20;;;;;;;;;;5023712;28;20044;-70
2023/07/12 06:32:50;;;;;;;3.55;2.22;;;;;;;;;;5025954;28;20466;-70
2023/07/12 06:35:15;;;;;;;3.78;2.17;;;;;;;;;;5023970;28;20112;-70
2023/07/12 06:37:41;;;;;;;4.30;2.20;;;;;;;;;;5020054;28;20037;-71
2023/07/12 06:40:06;;;;;;;3.55;1.95;;;;;;;;;;5017829;28;20098;-71
2023/07/12 06:42:33;;;;;;;3.97;2.58;;;;;;;;;;5016974;28;20049;-71
2023/07/12 06:44:58;;;;;;;3.55;1.90;;;;;;;;;;5021783;28;20041;-70
2023/07/12 06:47:24;;;;;;;2.95;1.70;;;;;;;;;;5021356;28;20033;-70
2023/07/12 06:49:49;;;;;;;3.35;1.50;;;;;;;;;;5002908;28;20029;-70
2023/07/12 06:52:15;;;;;;;3.05;1.70;;;;;;;;;;5020533;28;20546;-70
2023/07/12 06:54:40;;;;;;;3.00;1.58;;;;;;;;;;5012058;28;20029;-71
2023/07/12 06:57:06;;;;;;;3.17;1.70;;;;;;;;;;5018316;28;20026;-70
2023/07/12 06:59:31;;;;;;;3.03;1.42;;;;;;;;;;5021254;28;20505;-72
2023/07/12 07:01:57;;;;;;;2.53;1.70;;;;;;;;;;5022059;28;20033;-71
2023/07/12 07:04:22;;;;;;;6.93;2.10;;;;;;;;;;5020985;28;20033;-70
2023/07/12 07:06:48;;;;;;;2.63;1.25;;;;;;;;;;5026546;28;20029;-69
2023/07/12 07:09:13;;;;;;;2.65;1.30;;;;;;;;;;5022169;28;20101;-72
2023/07/12 07:11:39;;;;;;;3.33;1.98;;;;;;;;;;5019065;28;20022;-70
2023/07/12 07:14:04;;;;;;;2.35;1.20;;;;;;;;;;5024776;28;20023;-70
2023/07/12 07:16:30;;;;;;;3.20;1.40;;;;;;;;;;5020769;28;20017;-69
2023/07/12 07:18:55;;;;;;;2.42;1.25;;;;;;;;;;5020706;28;20048;-69
2023/07/12 07:21:21;;;;;;;2.83;1.23;;;;;;;;;;5019866;28;20122;-70
2023/07/12 07:23:47;;;;;;;2.35;1.17;;;;;;;;;;5022958;28;20573;-69
2023/07/12 07:26:13;;;;;;;2.60;1.15;;;;;;;;;;5028733;28;20031;-69
2023/07/12 07:28:39;;;;;;;2.38;1.25;;;;;;;;;;5018915;28;20028;-71
2023/07/12 07:31:06;;;;;;;0.98;0.70;;;;;;;;;;5012653;28;20041;-69
2023/07/12 07:33:31;;;;;;;2.38;0.88;;;;;;;;;;5017664;28;20029;-71
2023/07/12 07:35:57;;;;;;;1.23;0.90;;;;;;;;;;5026803;28;20124;-69
2023/07/12 07:38:26;;;;;;;2.38;1.00;;;;;;;;;;5023308;28;20026;-69
2023/07/12 07:40:53;;;;;;;1.63;1.02;;;;;;;;;;5019111;28;20077;-70
2023/07/12 07:43:18;;;;;;;2.03;1.00;;;;;;;;;;5020902;28;20041;-70
2023/07/12 07:45:44;;;;;;;2.28;0.85;;;;;;;;;;5022181;28;20052;-70
2023/07/12 07:48:10;;;;;;;1.38;0.90;;;;;;;;;;5021610;28;20025;-70
2023/07/12 07:50:37;;;;;;;2.10;1.00;;;;;;;;;;5022917;28;20029;-69
2023/07/12 07:53:03;;;;;;;1.92;1.00;;;;;;;;;;5022103;28;20063;-69
2023/07/12 07:55:29;;;;;;;2.30;1.17;;;;;;;;;;5019757;28;20410;-69
2023/07/12 07:57:55;;;;;;;3.03;1.00;;;;;;;;;;5027146;28;20113;-70
2023/07/12 08:00:20;;;;;;;1.95;0.90;;;;;;;;;;5026822;28;20104;-69
2023/07/12 08:02:46;;;;;;;1.40;0.85;;;;;;;;;;5024834;28;20041;-70
2023/07/12 08:05:13;;;;;;;2.85;1.23;;;;;;;;;;5024131;28;20093;-69
2023/07/12 08:07:41;;;;;;;1.73;1.00;;;;;;;;;;5024397;28;20738;-70
2023/07/12 08:10:14;;;;;;;1.48;0.70;;;;;;;;;;5020365;28;21272;-70
2023/07/12 08:12:39;;;;;;;1.40;0.70;;;;;;;;;;5021605;28;20025;-70
2023/07/12 08:15:05;;;;;;;4.65;0.90;;;;;;;;;;5020890;28;20022;-69
2023/07/12 08:17:31;;;;;;;1.55;1.00;;;;;;;;;;5023035;28;20818;-70
2023/07/12 08:19:57;;;;;;;1.77;0.77;;;;;;;;;;5022498;28;20105;-69
2023/07/12 08:22:22;;;;;;;0.90;0.70;;;;;;;;;;5024548;28;20126;-70
2023/07/12 08:24:48;;;;;;;1.23;0.82;;;;;;;;;;5023687;28;20363;-71
2023/07/12 08:27:15;;;;;;;2.70;0.63;;;;;;;;;;5026363;28;20032;-70
2023/07/12 08:29:41;;;;;;;1.30;0.57;;;;;;;;;;5023542;28;20498;-69
2023/07/12 08:32:07;;;;;;;1.08;0.60;;;;;;;;;;5021377;28;20053;-70
2023/07/12 08:34:33;;;;;;;3.22;0.75;;;;;;;;;;5026878;28;20048;-71
2023/07/12 08:36:58;;;;;;;1.05;0.80;;;;;;;;;;5021837;28;20712;-70
2023/07/12 08:39:23;;;;;;;1.92;0.73;;;;;;;;;;5024265;28;20028;-70
2023/07/12 08:41:51;;;;;;;1.50;0.70;;;;;;;;;;5022470;28;20083;-69
2023/07/12 08:44:17;;;;;;;1.83;0.60;;;;;;;;;;5020478;28;20214;-70
2023/07/12 08:46:59;;;;;;;1.27;0.80;;;;;;;;;;5021833;28;20033;-69
2023/07/12 08:49:26;;;;;;;0.98;0.60;;;;;;;;;;5022288;28;20021;-69
2023/07/12 08:52:04;;;;;;;1.38;0.70;;;;;;;;;;5023714;28;20025;-69
2023/07/12 08:54:34;;;;;;;1.65;0.75;;;;;;;;;;5024087;28;20537;-70
2023/07/12 08:57:20;;;;;;;1.67;0.68;;;;;;;;;;5024949;28;20021;-69
2023/07/12 09:00:11;;;;;;;1.30;0.77;;;;;;;;;;5024272;28;20033;-69
2023/07/12 09:02:37;;;;;;;2.25;0.73;;;;;;;;;;5024932;28;20025;-69
2023/07/12 09:05:16;;;;;;;2.05;0.65;;;;;;;;;;5025926;28;20021;-69
2023/07/12 09:07:49;;;;;;;1.55;0.50;;;;;;;;;;5009426;28;20112;-71
2023/07/12 09:10:29;;;;;;;2.38;0.77;;;;;;;;;;5023747;28;20057;-70
2023/07/12 09:12:58;;;;;;;2.40;0.90;;;;;;;;;;5026829;28;20039;-70
2023/07/12 09:15:32;;;;;;;1.05;0.70;;;;;;;;;;5021876;28;20029;-69
2023/07/12 09:17:58;;;;;;;0.88;0.60;;;;;;;;;;5023166;28;20627;-69
2023/07/12 09:20:29;;;;;;;0.70;0.50;;;;;;;;;;5023332;28;20022;-69
2023/07/12 09:22:55;;;;;;;1.55;0.80;;;;;;;;;;5024243;28;20495;-70
2023/07/12 09:25:34;;;;;;;1.45;0.70;;;;;;;;;;5023080;28;20084;-71
2023/07/12 09:27:59;;;;;;;1.10;0.57;;;;;;;;;;5023988;28;20033;-70
2023/07/12 09:30:27;;;;;;;0.80;0.70;;;;;;;;;;5024675;28;20038;-70
2023/07/12 09:32:54;;;;;;;1.10;0.57;;;;;;;;;;5021425;28;20040;-69
2023/07/12 09:35:36;;;;;;;1.20;0.70;;;;;;;;;;5021403;28;20105;-71
2023/07/12 09:38:06;;;;;;;1.83;0.70;;;;;;;;;;5021118;28;20033;-69
2023/07/12 09:40:38;;;;;;;2.95;0.60;;;;;;;;;;5020405;28;20032;-70
2023/07/12 09:43:13;;;;;;;2.45;0.70;;;;;;;;;;5018338;28;20030;-69
2023/07/12 09:45:41;;;;;;;1.83;0.60;;;;;;;;;;5011656;28;20112;-70
2023/07/12 09:48:30;;;;;;;1.30;0.90;;;;;;;;;;5017974;28;20489;-69
2023/07/12 09:51:24;;;;;;;1.42;0.65;;;;;;;;;;5019179;28;20037;-70
2023/07/12 09:53:52;;;;;;;1.55;0.75;;;;;;;;;;5020996;28;20017;-70
2023/07/12 09:56:27;;;;;;;1.65;0.68;;;;;;;;;;5019327;28;20064;-70
2023/07/12 09:59:03;;;;;;;1.17;0.68;;;;;;;;;;5021915;28;20108;-71
2023/07/12 10:01:37;;;;;;;1.60;0.60;;;;;;;;;;5016525;28;20022;-70
2023/07/12 10:04:32;;;;;;;1.63;0.80;;;;;;;;;;5020582;28;20018;-70
2023/07/12 10:06:57;;;;;;;0.93;0.70;;;;;;;;;;5019691;28;20029;-69
2023/07/12 10:09:29;;;;;;;2.47;0.80;;;;;;;;;;5018841;28;20470;-70
2023/07/12 10:12:11;;;;;;;1.48;0.63;;;;;;;;;;5021026;28;20017;-71
2023/07/12 10:14:39;;;;;;;1.25;0.80;;;;;;;;;;5023388;28;20018;-70
2023/07/12 10:17:09;;;;;;;1.70;0.90;;;;;;;;;;5017933;28;20026;-71
2023/07/12 10:19:38;;;;;;;1.65;0.68;;;;;;;;;;5019422;28;20466;-69
2023/07/12 10:22:15;;;;;;;3.63;1.10;;;;;;;;;;5018760;28;20037;-69
2023/07/12 10:24:43;;;;;;;2.67;0.75;;;;;;;;;;5019332;28;20029;-71
2023/07/12 10:27:24;;;;;;;3.38;0.90;;;;;;;;;;5023748;28;20079;-69
2023/07/12 10:30:09;;;;;;;1.23;0.80;;;;;;;;;;5019330;28;20613;-69
2023/07/12 10:32:48;;;;;;;1.80;0.70;;;;;;;;;;5020562;28;20513;-71
2023/07/12 10:35:36;;;;;;;3.72;1.10;;;;;;;;;;5019075;28;20025;-69
2023/07/12 10:38:21;;;;;;;1.17;0.80;;;;;;;;;;5020060;28;20080;-70
2023/07/12 10:41:00;;;;;;;1.77;0.80;;;;;;;;;;5021135;28;20013;-70
2023/07/12 10:43:31;;;;;;;1.55;0.90;;;;;;;;;;5021949;28;20079;-71
2023/07/12 10:46:04;;;;;;;2.03;0.93;;;;;;;;;;5023639;28;20045;-70
2023/07/12 10:48:31;;;;;;;0.88;0.70;;;;;;;;;;5023111;28;20029;-71
2023/07/12 10:51:16;;;;;;;2.33;0.85;;;;;;;;;;5016647;28;20038;-69
2023/07/12 10:53:50;;;;;;;1.40;0.90;;;;;;;;;;5019507;28;20039;-69
2023/07/12 10:56:18;;;;;;;1.38;0.77;;;;;;;;;;5020598;28;20028;-69
2023/07/12 10:58:55;;;;;;;2.42;1.00;;;;;;;;;;5023772;28;20587;-69
2023/07/12 11:01:41;;;;;;;2.97;1.08;;;;;;;;;;5022722;28;20485;-71
2023/07/12 11:04:37;;;;;;;1.48;0.82;;;;;;;;;;5019473;28;20017;-70
2023/07/12 11:07:04;;;;;;;2.63;0.95;;;;;;;;;;5023916;28;20413;-70
2023/07/12 11:09:42;;;;;;;2.55;1.00;;;;;;;;;;5025484;28;20041;-71
2023/07/12 11:12:08;;;;;;;1.27;0.90;;;;;;;;;;5023235;28;20654;-69
2023/07/12 11:14:37;;;;;;;2.20;1.10;;;;;;;;;;5026631;28;20037;-70
2023/07/12 11:17:04;;;;;;;1.83;0.90;;;;;;;;;;5026401;28;20029;-71
2023/07/12 11:19:35;;;;;;;1.73;0.90;;;;;;;;;;5025408;28;20402;-69
2023/07/12 11:22:09;;;;;;;2.17;0.88;;;;;;;;;;5024833;28;20570;-69
2023/07/12 11:25:10;;;;;;;1.67;0.80;;;;;;;;;;5026630;28;20230;-69
2023/07/12 11:27:44;;;;;;;2.42;0.88;;;;;;;;;;4963645;28;20666;-69
2023/07/12 11:30:14;;;;;;;3.70;1.02;;;;;;;;;;5024767;28;20036;-69
2023/07/12 11:32:41;;;;;;;1.23;0.80;;;;;;;;;;5024132;28;20513;-70
2023/07/12 11:35:12;;;;;;;2.55;1.10;;;;;;;;;;5026107;28;20041;-69
2023/07/12 11:37:43;;;;;;;1.48;0.98;;;;;;;;;;5026903;28;20032;-71
2023/07/12 11:40:16;;;;;;;1.48;0.70;;;;;;;;;;5026497;28;20033;-70
2023/07/12 11:42:42;;;;;;;1.38;0.85;;;;;;;;;;5027469;28;20040;-70
2023/07/12 11:45:14;;;;;;;2.15;1.00;;;;;;;;;;5024117;28;20055;-71
2023/07/12 11:47:45;;;;;;;2.22;0.90;;;;;;;;;;5026330;28;20017;-70
2023/07/12 11:50:20;;;;;;;1.55;0.93;;;;;;;;;;5025604;28;20021;-69
2023/07/12 11:52:46;;;;;;;1.20;0.80;;;;;;;;;;5024422;28;20108;-70
2023/07/12 11:55:18;;;;;;;2.00;0.80;;;;;;;;;;5024421;28;20056;-71
2023/07/12 11:57:45;;;;;;;1.80;1.10;;;;;;;;;;5026029;28;20025;-70
2023/07/12 12:00:20;;;;;;;1.73;1.20;;;;;;;;;;5024886;28;20018;-70
2023/07/12 12:02:49;;;;;;;2.00;1.05;;;;;;;;;;5023162;28;20021;-70
2023/07/12 12:05:20;;;;;;;2.15;0.90;;;;;;;;;;5024892;28;20029;-70
2023/07/12 12:07:47;;;;;;;1.50;0.98;;;;;;;;;;5025973;28;20023;-69
2023/07/12 12:10:24;;;;;;;2.00;1.20;;;;;;;;;;5025806;28;20037;-70
2023/07/12 12:12:50;;;;;;;1.65;1.20;;;;;;;;;;5025583;28;20030;-70
2023/07/12 12:15:20;;;;;;;1.38;1.02;;;;;;;;;;5022941;28;20397;-70
2023/07/12 12:17:45;;;;;;;1.60;1.27;;;;;;;;;;5021882;28;20195;-71
2023/07/12 12:20:26;;;;;;;1.65;1.30;;;;;;;;;;5025483;28;20627;-70
2023/07/12 12:23:19;;;;;;;1.63;1.30;;;;;;;;;;5025248;28;20017;-71
2023/07/12 12:25:50;;;;;;;2.40;1.30;;;;;;;;;;5026792;28;20740;-70
2023/07/12 12:28:26;;;;;;;1.40;1.05;;;;;;;;;;5023279;28;20021;-70
2023/07/12 12:30:57;;;;;;;1.45;1.20;;;;;;;;;;5021276;28;20091;-70
2023/07/12 12:33:26;;;;;;;1.77;1.40;;;;;;;;;;5024422;28;20017;-71
2023/07/12 12:35:58;;;;;;;2.75;1.30;;;;;;;;;;5006930;28;20025;-70
2023/07/12 12:38:36;;;;;;;1.50;1.20;;;;;;;;;;5005504;28;20496;-70
2023/07/12 12:41:13;;;;;;;1.67;1.50;;;;;;;;;;5023602;28;20544;-70
2023/07/12 12:43:55;;;;;;;2.53;1.45;;;;;;;;;;5024699;28;20461;-70
2023/07/12 12:46:20;;;;;;;2.10;1.40;;;;;;;;;;5042492;28;20029;-70
2023/07/12 12:48:49;;;;;;;3.83;1.33;;;;;;;;;;5023887;28;20362;-70
2023/07/12 12:51:15;;;;;;;2.17;1.30;;;;;;;;;;5022844;28;20033;-71
2023/07/12 12:53:40;;;;;;;2.28;1.15;;;;;;;;;;5022802;28;20083;-71
2023/07/12 12:56:11;;;;;;;2.03;1.50;;;;;;;;;;5024725;28;20038;-70
2023/07/12 12:58:36;;;;;;;1.45;1.27;;;;;;;;;;5024757;28;20030;-70
2023/07/12 13:01:02;;;;;;;2.00;1.40;;;;;;;;;;5005713;28;20040;-70
2023/07/12 13:03:27;;;;;;;2.92;1.55;;;;;;;;;;5009136;28;20021;-70
2023/07/12 13:05:53;;;;;;;1.73;1.50;;;;;;;;;;5025345;28;20029;-70
2023/07/12 13:08:18;;;;;;;1.90;1.48;;;;;;;;;;5025629;28;20112;-70
2023/07/12 13:10:44;;;;;;;2.17;1.33;;;;;;;;;;5023112;28;20021;-70
2023/07/12 13:13:15;;;;;;;1.90;1.20;;;;;;;;;;5022186;28;20032;-70
2023/07/12 13:15:40;;;;;;;;;;;;;;;;;;5026029;28;20029;-71
2023/07/12 13:18:12;;;;;;;2.65;1.30;;;;;;;;;;5023827;28;19913;-71
2023/07/12 13:20:38;;;;;;;1.25;1.05;;;;;;;;;;5024755;28;20021;-71
2023/07/12 13:23:03;;;;;;;1.52;1.10;;;;;;;;;;5020480;28;20021;-71
2023/07/12 13:25:30;;;;;;;2.22;1.27;;;;;;;;;;5025756;28;20071;-71
2023/07/12 13:27:56;;;;;;;2.55;1.20;;;;;;;;;;5025074;28;20033;-70
2023/07/12 13:30:25;;;;;;;2.00;1.25;;;;;;;;;;5023548;28;20037;-71
2023/07/12 13:32:51;;;;;;;1.65;0.85;;;;;;;;;;5006694;28;20037;-69
2023/07/12 13:35:18;;;;;;;3.20;1.40;;;;;;;;;;5023137;28;20021;-70
2023/07/12 13:37:45;;;;;;;2.70;1.13;;;;;;;;;;5023505;28;20033;-71
2023/07/12 13:40:17;;;;;;;1.10;1.00;;;;;;;;;;5023676;28;20032;-70
2023/07/12 13:42:44;;;;;;;2.30;1.30;;;;;;;;;;5023909;28;20021;-71
2023/07/12 13:45:11;;;;;;;1.50;0.98;;;;;;;;;;5022961;28;20029;-70
2023/07/12 13:47:37;;;;;;;1.42;1.10;;;;;;;;;;5023968;28;20041;-70
2023/07/12 13:50:05;;;;;;;2.72;1.10;;;;;;;;;;5008362;28;20028;-70
2023/07/12 13:52:32;;;;;;;1.73;1.10;;;;;;;;;;5022075;28;20033;-70
2023/07/12 13:54:58;;;;;;;2.35;1.00;;;;;;;;;;5021781;28;20437;-70
2023/07/12 13:57:27;;;;;;;1.77;0.95;;;;;;;;;;5021646;28;20025;-70
2023/07/12 13:59:52;;;;;;;1.40;0.90;;;;;;;;;;5022369;28;20394;-71
2023/07/12 14:02:30;;;;;;;1.23;0.90;;;;;;;;;;5002934;28;20131;-70
2023/07/12 14:04:59;;;;;;;2.80;1.00;;;;;;;;;;5022112;28;20041;-70
2023/07/12 14:07:29;;;;;;;1.65;1.00;;;;;;;;;;5022056;28;20049;-70
2023/07/12 14:09:55;;;;;;;;;;;;;;;;;;5024338;28;20025;-71
2023/07/12 14:12:22;;;;;;;1.70;1.00;;;;;;;;;;5023675;28;19909;-70
2023/07/12 14:14:48;;;;;;;1.98;0.88;;;;;;;;;;5021639;28;20037;-70
2023/07/12 14:17:17;;;;;;;1.30;1.00;;;;;;;;;;5021761;28;20034;-71
2023/07/12 14:19:46;;;;;;;2.53;1.10;;;;;;;;;;5020307;28;20655;-70
2023/07/12 14:22:16;;;;;;;2.30;1.20;;;;;;;;;;5025031;28;20349;-70
2023/07/12 14:24:43;;;;;;;1.88;0.90;;;;;;;;;;5022170;28;20505;-71
2023/07/12 14:27:18;;;;;;;1.88;1.10;;;;;;;;;;5024307;28;20061;-71
2023/07/12 14:29:44;;;;;;;1.73;0.85;;;;;;;;;;5026414;28;20053;-71
2023/07/12 14:32:23;;;;;;;1.50;0.80;;;;;;;;;;5008843;28;20029;-70
2023/07/12 14:34:49;;;;;;;1.00;0.80;;;;;;;;;;5017583;28;20079;-71
2023/07/12 14:37:17;;;;;;;1.70;0.90;;;;;;;;;;5024847;28;20612;-71
2023/07/12 14:39:43;;;;;;;1.85;0.82;;;;;;;;;;5023099;28;20021;-70
2023/07/12 14:42:22;;;;;;;1.25;0.98;;;;;;;;;;5017144;28;20032;-70
2023/07/12 14:44:47;;;;;;;1.88;0.80;;;;;;;;;;5012784;28;20055;-70
2023/07/12 14:47:15;;;;;;;2.08;0.98;;;;;;;;;;5016710;28;20116;-71
2023/07/12 14:49:42;;;;;;;1.52;0.88;;;;;;;;;;5005203;28;20033;-71
2023/07/12 14:52:27;;;;;;;1.58;0.90;;;;;;;;;;5016017;28;20188;-70